createdAt,value
2023-04-18T00:01:10.941Z,22.27
2023-04-18T00:03:38.991Z,21.67
2023-04-18T00:06:05.852Z,21.63
2023-04-18T00:08:34.100Z,22.27
2023-04-18T00:11:00.700Z,18.98
2023-04-18T00:13:28.407Z,19.00
2023-04-18T00:15:55.119Z,21.52
2023-04-18T00:18:22.107Z,18.48
2023-04-18T00:20:48.575Z,20.40
2023-04-18T00:23:15.181Z,21.13
2023-04-18T00:25:41.644Z,21.02
2023-04-18T00:28:08.256Z,19.60
2023-04-18T00:30:34.786Z,19.90
2023-04-18T00:33:01.517Z,21.02
2023-04-18T00:35:28.138Z,18.88
2023-04-18T00:37:54.691Z,21.00
2023-04-18T00:40:21.127Z,25.65
2023-04-18T00:42:47.611Z,20.95
2023-04-18T00:45:14.038Z,16.60
2023-04-18T00:47:40.669Z,20.35
2023-04-18T00:50:08.543Z,19.50
2023-04-18T00:52:35.966Z,21.33
2023-04-18T00:55:07.558Z,19.45
2023-04-18T00:57:34.642Z,18.95
2023-04-18T01:00:01.962Z,17.45
2023-04-18T01:02:31.973Z,18.83
2023-04-18T01:04:58.667Z,19.08
2023-04-18T01:07:26.570Z,18.38
2023-04-18T01:09:53.952Z,14.32
2023-04-18T01:12:20.365Z,19.27
2023-04-18T01:14:46.808Z,16.15
2023-04-18T01:17:13.435Z,16.35
2023-04-18T01:19:40.740Z,20.00
2023-04-18T01:22:13.106Z,18.08
2023-04-18T01:24:39.762Z,15.93
2023-04-18T01:27:06.378Z,18.00
2023-04-18T01:29:32.835Z,17.38
2023-04-18T01:31:59.375Z,18.38
2023-04-18T01:34:26.168Z,18.23
2023-04-18T01:36:52.655Z,17.95
2023-04-18T01:39:19.344Z,17.95
2023-04-18T01:41:45.789Z,16.85
2023-04-18T01:44:15.043Z,19.80
2023-04-18T01:46:41.665Z,17.65
2023-04-18T01:49:08.775Z,17.02
2023-04-18T01:51:35.461Z,17.10
2023-04-18T01:54:02.028Z,16.42
2023-04-18T01:56:28.506Z,18.75
2023-04-18T01:58:55.156Z,14.85
2023-04-18T02:01:21.771Z,18.27
2023-04-18T02:03:48.649Z,16.65
2023-04-18T02:06:15.296Z,17.58
2023-04-18T02:08:41.801Z,16.90
2023-04-18T02:11:08.266Z,16.85
2023-04-18T02:13:34.711Z,17.52
2023-04-18T02:16:01.229Z,16.33
2023-04-18T02:18:27.818Z,18.70
2023-04-18T02:20:54.306Z,18.92
2023-04-18T02:23:20.792Z,19.40
2023-04-18T02:25:47.271Z,16.00
2023-04-18T02:28:13.807Z,16.35
2023-04-18T02:30:40.280Z,11.25
2023-04-18T02:33:06.823Z,16.30
2023-04-18T02:35:37.997Z,14.50
2023-04-18T02:38:04.564Z,16.23
2023-04-18T02:40:31.071Z,17.27
2023-04-18T02:42:58.137Z,16.13
2023-04-18T02:45:24.616Z,15.60
2023-04-18T02:47:55.632Z,18.05
2023-04-18T02:50:23.817Z,17.75
2023-04-18T02:52:50.509Z,15.88
2023-04-18T02:55:17.155Z,16.63
2023-04-18T02:57:43.580Z,15.07
2023-04-18T03:00:10.667Z,15.95
2023-04-18T03:02:37.177Z,15.68
2023-04-18T03:05:04.035Z,14.50
2023-04-18T03:07:30.896Z,17.23
2023-04-18T03:09:57.659Z,17.05
2023-04-18T03:12:24.131Z,18.75
2023-04-18T03:14:50.674Z,15.77
2023-04-18T03:17:17.274Z,11.30
2023-04-18T03:19:46.748Z,16.17
2023-04-18T03:22:14.291Z,16.33
2023-04-18T03:24:41.003Z,16.38
2023-04-18T03:27:07.590Z,17.95
2023-04-18T03:29:34.206Z,15.57
2023-04-18T03:32:00.817Z,20.33
2023-04-18T03:34:27.549Z,19.48
2023-04-18T03:36:54.275Z,17.27
2023-04-18T03:39:20.921Z,16.90
2023-04-18T03:41:47.407Z,18.55
2023-04-18T03:44:14.065Z,16.35
2023-04-18T03:46:41.241Z,21.15
2023-04-18T03:49:07.881Z,18.67
2023-04-18T03:51:42.765Z,16.63
2023-04-18T03:54:09.252Z,18.80
2023-04-18T03:56:36.158Z,20.95
2023-04-18T03:59:02.604Z,21.92
2023-04-18T04:01:29.129Z,18.27
2023-04-18T04:03:55.726Z,19.25
2023-04-18T04:06:22.729Z,10.18
2023-04-18T04:08:49.262Z,18.92
2023-04-18T04:11:15.698Z,20.02
2023-04-18T04:13:42.210Z,18.08
2023-04-18T04:16:08.724Z,19.35
2023-04-18T04:18:35.307Z,21.40
2023-04-18T04:21:03.640Z,20.17
2023-04-18T04:23:30.074Z,19.38
2023-04-18T04:25:56.588Z,18.50
2023-04-18T04:28:23.418Z,19.25
2023-04-18T04:30:50.869Z,18.65
2023-04-18T04:33:21.171Z,19.63
2023-04-18T04:35:48.046Z,29.40
2023-04-18T04:38:15.365Z,19.20
2023-04-18T04:40:42.712Z,13.82
2023-04-18T04:43:12.583Z,21.10
2023-04-18T04:45:42.108Z,19.40
2023-04-18T04:48:09.200Z,19.52
2023-04-18T04:50:40.387Z,20.15
2023-04-18T04:53:07.015Z,16.50
2023-04-18T04:55:33.717Z,19.13
2023-04-18T04:58:00.482Z,18.98
2023-04-18T05:00:27.048Z,19.27
2023-04-18T05:02:59.892Z,22.25
2023-04-18T05:05:26.499Z,21.02
2023-04-18T05:07:55.985Z,20.33
2023-04-18T05:10:23.147Z,23.02
2023-04-18T05:12:49.708Z,17.70
2023-04-18T05:15:16.686Z,17.90
2023-04-18T05:17:43.299Z,19.58
2023-04-18T05:20:10.373Z,21.13
2023-04-18T05:22:37.158Z,18.77
2023-04-18T05:25:07.045Z,19.40
2023-04-18T05:27:33.644Z,18.85
2023-04-18T05:30:00.069Z,10.15
2023-04-18T05:32:26.606Z,18.95
2023-04-18T05:34:53.061Z,19.33
2023-04-18T05:37:19.569Z,20.50
2023-04-18T05:39:46.142Z,18.40
2023-04-18T05:42:12.551Z,21.50
2023-04-18T05:44:39.262Z,18.67
2023-04-18T05:47:06.899Z,18.42
2023-04-18T05:49:34.060Z,19.23
2023-04-18T05:52:00.825Z,17.98
2023-04-18T05:54:27.638Z,19.73
2023-04-18T05:56:55.050Z,20.67
2023-04-18T05:59:21.842Z,19.88
2023-04-18T06:01:49.697Z,19.45
2023-04-18T06:04:17.235Z,21.52
2023-04-18T06:06:44.260Z,20.05
2023-04-18T06:09:11.371Z,21.00
2023-04-18T06:11:38.409Z,20.75
2023-04-18T06:14:05.199Z,20.17
2023-04-18T06:16:31.884Z,21.23
2023-04-18T06:19:00.864Z,14.68
2023-04-18T06:21:27.859Z,20.17
2023-04-18T06:23:54.645Z,20.65
2023-04-18T06:26:21.253Z,18.85
2023-04-18T06:28:47.715Z,18.77
2023-04-18T06:31:14.235Z,21.17
2023-04-18T06:33:40.908Z,18.88
2023-04-18T06:36:08.820Z,22.35
2023-04-18T06:38:35.402Z,19.38
2023-04-18T06:41:01.912Z,20.38
2023-04-18T06:43:28.386Z,23.52
2023-04-18T06:45:56.519Z,19.88
2023-04-18T06:48:23.136Z,21.88
2023-04-18T06:50:49.759Z,20.40
2023-04-18T06:53:16.296Z,21.27
2023-04-18T06:55:42.821Z,20.48
2023-04-18T06:58:10.138Z,21.45
2023-04-18T07:00:36.706Z,21.50
2023-04-18T07:03:11.083Z,24.50
2023-04-18T07:05:38.276Z,20.40
2023-04-18T07:08:04.929Z,21.08
2023-04-18T07:10:31.520Z,23.92
2023-04-18T07:12:58.042Z,25.35
2023-04-18T07:15:24.609Z,20.00
2023-04-18T07:17:51.194Z,21.45
2023-04-18T07:20:17.731Z,22.27
2023-04-18T07:22:44.372Z,26.20
2023-04-18T07:25:10.904Z,23.30
2023-04-18T07:27:37.584Z,21.20
2023-04-18T07:30:04.929Z,23.65
2023-04-18T07:32:31.647Z,23.35
2023-04-18T07:34:59.122Z,26.98
2023-04-18T07:37:26.141Z,24.45
2023-04-18T07:39:52.819Z,25.27
2023-04-18T07:42:19.364Z,28.75
2023-04-18T07:44:46.912Z,27.17
2023-04-18T07:47:13.369Z,26.05
2023-04-18T07:49:39.835Z,25.20
2023-04-18T07:52:06.550Z,29.00
2023-04-18T07:54:33.006Z,30.75
2023-04-18T07:56:59.790Z,24.60
2023-04-18T07:59:26.355Z,27.25
2023-04-18T08:01:52.909Z,27.08
2023-04-18T08:04:19.569Z,29.75
2023-04-18T08:06:46.193Z,27.98
2023-04-18T08:09:13.078Z,25.50
2023-04-18T08:11:42.321Z,22.70
2023-04-18T08:14:08.810Z,26.20
2023-04-18T08:16:35.454Z,24.65
2023-04-18T08:19:01.986Z,28.23
2023-04-18T08:21:31.797Z,27.73
2023-04-18T08:23:58.899Z,24.30
2023-04-18T08:26:25.805Z,24.95
2023-04-18T08:28:52.335Z,23.98
2023-04-18T08:31:19.068Z,22.65
2023-04-18T08:33:45.647Z,25.45
2023-04-18T08:36:12.138Z,27.73
2023-04-18T08:38:38.602Z,13.73
2023-04-18T08:41:05.178Z,24.80
2023-04-18T08:43:31.724Z,24.05
2023-04-18T08:45:59.874Z,25.23
2023-04-18T08:48:29.741Z,25.42
2023-04-18T08:51:00.139Z,22.10
2023-04-18T08:53:26.790Z,24.77
2023-04-18T08:55:57.908Z,23.05
2023-04-18T08:58:26.963Z,25.75
2023-04-18T09:00:54.585Z,26.42
2023-04-18T09:03:40.884Z,27.30
2023-04-18T09:06:13.632Z,22.20
2023-04-18T09:08:44.019Z,24.35
2023-04-18T09:11:29.100Z,27.63
2023-04-18T09:13:58.585Z,26.33
2023-04-18T09:16:27.475Z,25.45
2023-04-18T09:19:18.570Z,25.00
2023-04-18T09:21:48.887Z,18.15
2023-04-18T09:24:29.283Z,21.42
2023-04-18T09:26:58.678Z,26.52
2023-04-18T09:29:49.358Z,26.70
2023-04-18T09:32:27.394Z,25.98
2023-04-18T09:34:58.072Z,30.33
2023-04-18T09:37:25.966Z,25.77
2023-04-18T09:39:52.777Z,25.77
2023-04-18T09:42:19.633Z,29.88
2023-04-18T09:45:05.757Z,29.08
2023-04-18T09:47:37.508Z,29.00
2023-04-18T09:50:06.426Z,20.92
2023-04-18T09:52:35.892Z,26.58
2023-04-18T09:55:05.141Z,27.75
2023-04-18T09:57:33.266Z,30.33
2023-04-18T10:00:14.083Z,27.38
2023-04-18T10:02:49.459Z,29.00
2023-04-18T10:07:49.214Z,29.63
2023-04-18T10:10:16.155Z,26.85
2023-04-18T10:12:43.450Z,27.35
2023-04-18T10:15:11.409Z,20.88
2023-04-18T10:18:00.630Z,25.60
2023-04-18T10:20:32.454Z,22.85
2023-04-18T10:22:59.794Z,27.77
2023-04-18T10:25:38.467Z,26.08
2023-04-18T10:28:06.672Z,25.20
2023-04-18T10:30:42.067Z,27.30
2023-04-18T10:36:00.715Z,23.27
2023-04-18T10:38:27.598Z,23.27
2023-04-18T10:41:16.324Z,27.23
2023-04-18T10:44:09.418Z,29.27
2023-04-18T10:46:43.301Z,30.38
2023-04-18T10:49:28.924Z,26.85
2023-04-18T10:52:01.784Z,28.88
2023-04-18T10:54:56.076Z,27.80
2023-04-18T10:57:24.234Z,27.30
2023-04-18T10:59:52.645Z,29.67
2023-04-18T11:02:32.358Z,25.58
2023-04-18T11:05:00.704Z,28.15
2023-04-18T11:07:48.458Z,27.13
2023-04-18T11:10:20.256Z,27.75
2023-04-18T11:12:47.386Z,24.83
2023-04-18T11:15:21.947Z,29.40
2023-04-18T11:18:00.662Z,32.40
2023-04-18T11:20:27.994Z,30.52
2023-04-18T11:23:00.287Z,24.27
2023-04-18T11:25:29.332Z,29.33
2023-04-18T11:27:59.306Z,22.05
2023-04-18T11:30:26.019Z,22.23
2023-04-18T11:32:54.108Z,27.67
2023-04-18T11:35:20.784Z,27.95
2023-04-18T11:37:49.863Z,27.90
2023-04-18T11:40:16.613Z,29.88
2023-04-18T11:42:43.201Z,30.40
2023-04-18T11:45:14.415Z,31.65
2023-04-18T11:47:43.066Z,32.20
2023-04-18T11:50:11.990Z,24.00
2023-04-18T11:52:41.111Z,28.25
2023-04-18T11:55:21.755Z,27.80
2023-04-18T11:57:58.621Z,27.65
2023-04-18T12:00:37.178Z,31.52
2023-04-18T12:03:05.686Z,26.63
2023-04-18T12:05:37.232Z,27.33
2023-04-18T12:08:20.970Z,28.92
2023-04-18T12:10:50.382Z,30.77
2023-04-18T12:13:18.070Z,32.13
2023-04-18T12:15:46.404Z,27.63
2023-04-18T12:18:15.353Z,24.27
2023-04-18T12:20:46.198Z,30.63
2023-04-18T12:23:41.866Z,29.45
2023-04-18T12:26:13.440Z,30.25
2023-04-18T12:28:39.990Z,28.02
2023-04-18T12:31:07.392Z,28.58
2023-04-18T12:33:36.651Z,27.27
2023-04-18T12:36:05.485Z,33.25
2023-04-18T12:38:32.099Z,29.38
2023-04-18T12:40:58.655Z,27.90
2023-04-18T12:43:25.716Z,28.05
2023-04-18T12:45:52.444Z,29.85
2023-04-18T12:48:18.910Z,28.33
2023-04-18T12:50:45.432Z,30.27
2023-04-18T12:53:11.984Z,31.17
2023-04-18T12:55:38.611Z,26.77
2023-04-18T12:58:05.235Z,26.33
2023-04-18T13:00:32.827Z,24.85
2023-04-18T13:03:00.171Z,26.65
2023-04-18T13:05:31.640Z,18.27
2023-04-18T13:08:15.486Z,27.88
2023-04-18T13:10:43.321Z,25.20
2023-04-18T13:13:09.773Z,27.90
2023-04-18T13:15:36.417Z,26.58
2023-04-18T13:18:06.056Z,26.90
2023-04-18T13:20:33.833Z,27.25
2023-04-18T13:23:01.831Z,27.42
2023-04-18T13:25:28.341Z,25.50
2023-04-18T13:27:55.195Z,24.45
2023-04-18T13:30:21.705Z,23.70
2023-04-18T13:32:48.312Z,25.83
2023-04-18T13:35:14.763Z,27.05
2023-04-18T13:37:41.336Z,28.48
2023-04-18T13:40:08.342Z,27.10
2023-04-18T13:42:37.036Z,28.48
2023-04-18T13:45:03.961Z,26.77
2023-04-18T13:47:30.510Z,25.52
2023-04-18T13:49:57.729Z,26.58
2023-04-18T13:52:24.544Z,27.77
2023-04-18T13:54:51.006Z,27.35
2023-04-18T13:57:17.502Z,27.33
2023-04-18T13:59:43.962Z,24.98
2023-04-18T14:02:10.901Z,25.55
2023-04-18T14:04:37.841Z,23.52
2023-04-18T14:07:06.224Z,26.10
2023-04-18T14:09:33.259Z,26.95
2023-04-18T14:11:59.856Z,23.48
2023-04-18T14:14:26.418Z,24.33
2023-04-18T14:16:53.657Z,26.08
2023-04-18T14:19:20.289Z,24.02
2023-04-18T14:21:47.869Z,22.10
2023-04-18T14:24:14.472Z,21.80
2023-04-18T14:26:41.356Z,23.27
2023-04-18T14:29:07.858Z,23.90
2023-04-18T14:31:34.492Z,22.98
2023-04-18T14:34:00.991Z,23.08
2023-04-18T14:36:27.685Z,25.40
2023-04-18T14:38:55.118Z,24.15
2023-04-18T14:41:21.771Z,28.17
2023-04-18T14:43:48.747Z,23.63
2023-04-18T14:46:18.874Z,24.23
2023-04-18T14:48:48.301Z,21.95
2023-04-18T14:51:16.355Z,23.50
2023-04-18T14:53:43.228Z,25.58
2023-04-18T14:56:09.724Z,20.33
2023-04-18T14:58:36.291Z,22.98
2023-04-18T15:01:04.116Z,26.75
2023-04-18T15:03:30.956Z,30.60
2023-04-18T15:05:57.713Z,27.95
2023-04-18T15:08:24.251Z,26.05
2023-04-18T15:10:50.840Z,27.98
2023-04-18T15:13:17.386Z,24.48
2023-04-18T15:15:51.228Z,27.10
2023-04-18T15:18:17.683Z,35.95
2023-04-18T15:20:44.249Z,32.83
2023-04-18T15:23:13.661Z,22.70
2023-04-18T15:25:41.138Z,24.63
2023-04-18T15:28:07.734Z,22.73
2023-04-18T15:30:34.320Z,30.60
2023-04-18T15:33:02.246Z,23.38
2023-04-18T15:35:28.827Z,28.90
2023-04-18T15:37:56.470Z,25.10
2023-04-18T15:40:23.626Z,18.25
2023-04-18T15:42:54.449Z,23.23
2023-04-18T15:45:21.865Z,21.63
2023-04-18T15:47:48.474Z,23.50
2023-04-18T15:50:16.282Z,23.13
2023-04-18T15:52:43.170Z,16.98
2023-04-18T15:55:13.351Z,24.70
2023-04-18T15:57:41.575Z,23.17
2023-04-18T16:00:17.677Z,24.17
2023-04-18T16:02:44.969Z,23.85
2023-04-18T16:05:15.209Z,24.38
2023-04-18T16:07:42.627Z,23.83
2023-04-18T16:10:10.900Z,24.00
2023-04-18T16:12:38.561Z,23.17
2023-04-18T16:15:06.725Z,22.08
2023-04-18T16:17:33.303Z,21.38
2023-04-18T16:19:59.820Z,24.98
2023-04-18T16:22:26.420Z,25.10
2023-04-18T16:24:52.889Z,24.45
2023-04-18T16:27:19.439Z,24.98
2023-04-18T16:29:46.112Z,25.63
2023-04-18T16:32:12.629Z,22.00
2023-04-18T16:34:39.090Z,23.52
2023-04-18T16:37:05.580Z,22.13
2023-04-18T16:39:32.284Z,24.35
2023-04-18T16:41:58.770Z,21.42
2023-04-18T16:44:25.280Z,24.27
2023-04-18T16:46:51.857Z,23.17
2023-04-18T16:49:19.109Z,23.48
2023-04-18T16:51:45.689Z,14.98
2023-04-18T16:54:12.359Z,20.80
2023-04-18T16:56:39.133Z,21.55
2023-04-18T16:59:10.666Z,21.20
2023-04-18T17:01:37.191Z,26.55
2023-04-18T17:04:05.174Z,22.98
2023-04-18T17:06:38.019Z,26.15
2023-04-18T17:09:06.336Z,22.85
2023-04-18T17:11:38.848Z,24.52
2023-04-18T17:14:06.049Z,26.65
2023-04-18T17:16:32.569Z,24.35
2023-04-18T17:18:59.058Z,23.45
2023-04-18T17:21:26.112Z,21.90
2023-04-18T17:23:53.340Z,23.95
2023-04-18T17:26:19.836Z,25.55
2023-04-18T17:28:46.332Z,23.30
2023-04-18T17:31:16.153Z,23.02
2023-04-18T17:33:43.009Z,24.10
2023-04-18T17:36:09.618Z,22.63
2023-04-18T17:38:36.128Z,23.92
2023-04-18T17:41:04.665Z,24.70
2023-04-18T17:43:31.156Z,32.70
2023-04-18T17:46:00.891Z,21.65
2023-04-18T17:48:27.384Z,30.83
2023-04-18T17:50:53.839Z,26.38
2023-04-18T17:53:20.814Z,24.70
2023-04-18T17:55:50.386Z,22.05
2023-04-18T17:58:16.953Z,27.23
2023-04-18T18:00:43.580Z,23.33
2023-04-18T18:03:13.575Z,26.83
2023-04-18T18:05:41.296Z,26.30
2023-04-18T18:08:07.946Z,24.05
2023-04-18T18:10:34.481Z,28.25
2023-04-18T18:13:00.992Z,32.88
2023-04-18T18:15:28.337Z,30.58
2023-04-18T18:17:55.354Z,30.30
2023-04-18T18:20:22.022Z,30.40
2023-04-18T18:22:48.706Z,30.52
2023-04-18T18:25:15.410Z,31.83
2023-04-18T18:27:42.076Z,32.08
2023-04-18T18:30:09.088Z,26.63
2023-04-18T18:32:35.650Z,28.67
2023-04-18T18:35:02.600Z,23.73
2023-04-18T18:37:29.055Z,21.80
2023-04-18T18:39:59.775Z,26.35
2023-04-18T18:42:26.275Z,26.35
2023-04-18T18:44:52.787Z,22.23
2023-04-18T18:47:19.392Z,24.92
2023-04-18T18:49:45.884Z,27.33
2023-04-18T18:52:12.426Z,22.52
2023-04-18T18:54:38.939Z,23.83
2023-04-18T18:57:05.488Z,21.85
2023-04-18T18:59:31.965Z,21.42
2023-04-18T19:01:58.587Z,20.33
2023-04-18T19:04:25.555Z,23.50
2023-04-18T19:06:53.492Z,21.65
2023-04-18T19:09:19.954Z,23.45
2023-04-18T19:11:46.410Z,20.25
2023-04-18T19:14:13.005Z,21.88
2023-04-18T19:16:39.495Z,21.58
2023-04-18T19:19:06.199Z,24.23
2023-04-18T19:21:32.736Z,23.73
2023-04-18T19:23:59.430Z,22.05
2023-04-18T19:26:26.002Z,23.10
2023-04-18T19:28:52.913Z,20.25
2023-04-18T19:31:19.496Z,22.75
2023-04-18T19:33:45.970Z,22.27
2023-04-18T19:36:12.436Z,23.50
2023-04-18T19:38:38.953Z,22.30
2023-04-18T19:41:05.448Z,19.08
2023-04-18T19:43:31.980Z,23.88
2023-04-18T19:45:59.126Z,20.33
2023-04-18T19:48:25.683Z,22.20
2023-04-18T19:50:52.143Z,18.83
2023-04-18T19:53:20.310Z,22.25
2023-04-18T19:55:46.864Z,23.58
2023-04-18T19:58:34.569Z,22.85
2023-04-18T20:01:01.128Z,24.45
2023-04-18T20:03:27.821Z,21.23
2023-04-18T20:05:54.523Z,23.77
2023-04-18T20:08:21.119Z,21.20
2023-04-18T20:10:47.557Z,24.38
2023-04-18T20:13:14.048Z,24.77
2023-04-18T20:15:40.927Z,22.08
2023-04-18T20:18:07.465Z,24.33
2023-04-18T20:20:34.061Z,22.30
2023-04-18T20:23:00.586Z,23.92
2023-04-18T20:25:27.078Z,23.98
2023-04-18T20:27:53.562Z,26.60
2023-04-18T20:30:21.935Z,23.80
2023-04-18T20:32:48.460Z,25.27
2023-04-18T20:35:15.171Z,23.75
2023-04-18T20:37:41.616Z,23.80
2023-04-18T20:40:08.946Z,28.45
2023-04-18T20:42:36.694Z,22.50
2023-04-18T20:45:03.735Z,25.52
2023-04-18T20:47:30.288Z,26.05
2023-04-18T20:49:56.847Z,26.33
2023-04-18T20:52:23.290Z,25.42
2023-04-18T20:54:49.751Z,25.95
2023-04-18T20:57:16.323Z,22.10
2023-04-18T20:59:42.747Z,25.40
2023-04-18T21:02:09.389Z,23.75
2023-04-18T21:04:36.151Z,21.67
2023-04-18T21:07:02.748Z,26.13
2023-04-18T21:09:30.900Z,28.42
2023-04-18T21:11:58.507Z,23.70
2023-04-18T21:14:24.940Z,25.30
2023-04-18T21:16:51.395Z,23.52
2023-04-18T21:19:17.861Z,22.38
2023-04-18T21:21:44.296Z,24.73
2023-04-18T21:24:11.061Z,22.63
2023-04-18T21:26:37.617Z,22.20
2023-04-18T21:29:04.778Z,26.52
2023-04-18T21:31:33.352Z,25.48
2023-04-18T21:34:02.448Z,24.58
2023-04-18T21:36:30.956Z,20.52
2023-04-18T21:38:59.128Z,24.40
2023-04-18T21:41:25.899Z,24.15
2023-04-18T21:43:52.815Z,24.80
2023-04-18T21:46:19.670Z,27.40
2023-04-18T21:48:47.324Z,25.42
2023-04-18T21:51:15.970Z,27.33
2023-04-18T21:53:42.665Z,24.08
2023-04-18T21:56:09.372Z,25.67
2023-04-18T21:58:35.871Z,26.17
2023-04-18T22:01:02.509Z,19.70
2023-04-18T22:03:29.332Z,31.33
2023-04-18T22:05:56.613Z,26.50
2023-04-18T22:08:25.754Z,24.92
2023-04-18T22:10:58.950Z,24.95
2023-04-18T22:13:30.065Z,25.63
2023-04-18T22:15:58.133Z,25.88
2023-04-18T22:18:25.061Z,26.05
2023-04-18T22:20:53.526Z,24.75
2023-04-18T22:23:20.223Z,27.40
2023-04-18T22:25:46.695Z,27.30
2023-04-18T22:28:13.166Z,28.83
2023-04-18T22:30:39.924Z,27.13
2023-04-18T22:33:06.405Z,27.88
2023-04-18T22:35:32.864Z,26.05
2023-04-18T22:37:59.321Z,25.80
2023-04-18T22:40:25.821Z,28.70
2023-04-18T22:42:52.367Z,26.65
2023-04-18T22:45:19.389Z,29.05
2023-04-18T22:47:46.695Z,25.40
2023-04-18T22:50:13.945Z,27.48
2023-04-18T22:52:40.618Z,24.90
2023-04-18T22:55:07.728Z,26.48
2023-04-18T22:57:34.175Z,28.65
2023-04-18T23:00:00.685Z,29.42
2023-04-18T23:02:27.231Z,25.73
2023-04-18T23:04:53.944Z,26.45
2023-04-18T23:07:20.670Z,29.05
2023-04-18T23:09:47.105Z,28.23
2023-04-18T23:12:13.556Z,28.10
2023-04-18T23:14:41.732Z,28.35
2023-04-18T23:17:08.420Z,30.75
2023-04-18T23:19:34.951Z,28.27
2023-04-18T23:22:01.427Z,28.20
2023-04-18T23:24:27.958Z,24.30
2023-04-18T23:26:54.386Z,32.65
2023-04-18T23:29:20.857Z,26.88
2023-04-18T23:31:47.354Z,26.70
2023-04-18T23:34:14.089Z,26.40
2023-04-18T23:36:40.745Z,28.55
2023-04-18T23:39:08.610Z,30.48
2023-04-18T23:41:35.494Z,26.98
2023-04-18T23:44:02.181Z,28.70
2023-04-18T23:46:28.691Z,28.70
2023-04-18T23:48:55.184Z,27.58
2023-04-18T23:51:21.753Z,29.75
2023-04-18T23:53:48.195Z,28.33
2023-04-18T23:56:14.654Z,26.38
2023-04-18T23:58:41.189Z,28.25
